createdAt,value
2018-02-13T04:30:31.979Z,25.00
2018-02-13T04:33:01.457Z,24.73
2018-02-13T04:35:29.307Z,23.27
2018-02-13T04:37:57.174Z,19.80
2018-02-13T04:40:24.878Z,25.05
2018-02-13T04:42:53.413Z,24.98
2018-02-13T04:45:21.279Z,23.15
2018-02-13T04:47:49.042Z,22.23
2018-02-13T04:50:16.807Z,29.85
2018-02-13T04:52:44.567Z,28.85
2018-02-13T04:55:12.337Z,22.77
2018-02-13T04:57:40.196Z,26.77
2018-02-13T05:00:08.061Z,24.55
2018-02-13T05:02:35.763Z,28.98
2018-02-13T05:05:04.303Z,28.95
2018-02-13T05:07:32.168Z,27.80
2018-02-13T05:09:59.931Z,25.98
2018-02-13T05:12:27.796Z,34.75
2018-02-13T05:14:55.662Z,29.92
2018-02-13T05:17:23.424Z,28.42
2018-02-13T05:19:51.188Z,22.55
2018-02-13T05:22:19.053Z,31.40
2018-02-13T05:24:46.923Z,31.98
2018-02-13T05:27:14.786Z,33.10
2018-02-13T05:29:42.655Z,32.95
2018-02-13T05:32:10.621Z,24.35
2018-02-13T05:34:38.485Z,35.03
2018-02-13T05:37:06.353Z,21.10
2018-02-13T05:39:34.215Z,30.15
2018-02-13T05:42:02.077Z,26.12
2018-02-13T05:44:29.843Z,33.20
2018-02-13T05:46:57.654Z,31.90
2018-02-13T05:49:25.469Z,35.95
2018-02-13T05:51:53.231Z,35.78
2018-02-13T05:54:20.994Z,40.35
2018-02-13T05:56:48.859Z,39.97
2018-02-13T05:59:16.622Z,50.12
2018-02-13T06:01:44.487Z,40.30
2018-02-13T06:04:12.250Z,40.35
2018-02-13T06:06:40.132Z,42.20
2018-02-13T06:09:07.981Z,46.88
2018-02-13T06:11:35.849Z,31.48
2018-02-13T06:14:03.761Z,37.40
2018-02-13T06:16:32.396Z,27.55
2018-02-13T06:19:00.160Z,26.60
2018-02-13T06:21:27.922Z,23.08
2018-02-13T06:23:55.786Z,27.62
2018-02-13T06:26:23.550Z,26.20
2018-02-13T06:28:51.313Z,30.77
2018-02-13T06:31:19.225Z,35.13
2018-02-13T06:33:47.044Z,36.25
2018-02-13T06:36:14.805Z,27.30
2018-02-13T06:38:42.671Z,30.23
2018-02-13T06:41:10.537Z,31.45
2018-02-13T06:43:38.300Z,32.97
2018-02-13T06:46:06.063Z,32.60
2018-02-13T06:48:33.928Z,29.58
2018-02-13T06:51:01.901Z,28.45
2018-02-13T06:53:29.762Z,29.33
2018-02-13T06:55:57.567Z,34.45
2018-02-13T06:58:26.106Z,33.58
2018-02-13T07:00:53.870Z,54.97
2018-02-13T07:03:21.734Z,94.32
2018-02-13T07:05:49.497Z,61.60
2018-02-13T07:08:17.363Z,74.53
2018-02-13T07:10:45.228Z,44.70
2018-02-13T07:13:13.093Z,40.55
2018-02-13T07:15:40.959Z,31.50
2018-02-13T07:18:08.723Z,32.22
2018-02-13T07:20:36.589Z,44.72
2018-02-13T07:23:04.454Z,36.70
2018-02-13T07:25:32.214Z,28.83
2018-02-13T07:28:00.080Z,29.05
2018-02-13T07:30:27.945Z,28.80
2018-02-13T07:32:55.711Z,23.90
2018-02-13T07:35:23.573Z,22.15
2018-02-13T07:37:51.438Z,23.65
2018-02-13T07:40:19.304Z,23.85
2018-02-13T07:42:47.109Z,25.58
2018-02-13T07:45:15.658Z,20.55
2018-02-13T07:47:43.518Z,21.62
2018-02-13T07:50:11.383Z,29.73
2018-02-13T07:52:39.143Z,35.50
2018-02-13T07:55:07.008Z,26.85
2018-02-13T07:57:34.770Z,25.42
2018-02-13T08:00:02.587Z,28.40
2018-02-13T08:02:30.399Z,30.50
2018-02-13T08:04:58.161Z,25.40
2018-02-13T08:07:26.027Z,25.33
2018-02-13T08:09:53.892Z,22.73
2018-02-13T08:12:21.758Z,32.20
2018-02-13T08:14:49.520Z,30.15
2018-02-13T08:17:17.387Z,26.50
2018-02-13T08:19:45.252Z,30.27
2018-02-13T08:22:13.016Z,25.62
2018-02-13T08:24:40.881Z,28.52
2018-02-13T08:27:08.642Z,33.63
2018-02-13T08:29:36.507Z,39.47
2018-02-13T08:32:04.224Z,30.73
2018-02-13T08:34:32.752Z,36.47
2018-02-13T08:37:00.630Z,48.72
2018-02-13T08:39:28.481Z,34.85
2018-02-13T08:41:56.347Z,30.92
2018-02-13T08:44:24.108Z,38.35
2018-02-13T08:46:51.872Z,30.80
2018-02-13T08:49:19.738Z,30.92
2018-02-13T08:51:47.501Z,28.98
2018-02-13T08:54:15.264Z,28.38
2018-02-13T08:56:43.128Z,27.20
2018-02-13T08:59:10.892Z,32.20
2018-02-13T09:01:38.657Z,33.28
2018-02-13T09:04:06.522Z,35.28
2018-02-13T09:06:34.286Z,34.53
2018-02-13T09:09:02.151Z,35.65
2018-02-13T09:11:30.013Z,38.53
2018-02-13T09:13:57.878Z,31.98
2018-02-13T09:16:25.745Z,33.47
2018-02-13T09:18:53.609Z,27.62
2018-02-13T09:21:21.372Z,21.73
2018-02-13T09:23:49.240Z,27.60
2018-02-13T09:26:17.102Z,30.73
2018-02-13T09:28:44.866Z,30.85
2018-02-13T09:31:12.730Z,28.70
2018-02-13T09:33:40.493Z,29.67
2018-02-13T09:36:08.256Z,29.87
2018-02-13T09:38:36.122Z,24.80
2018-02-13T09:41:03.885Z,24.50
2018-02-13T09:43:31.749Z,21.73
2018-02-13T09:45:59.614Z,25.58
2018-02-13T09:48:27.378Z,24.17
2018-02-13T09:50:55.141Z,40.33
2018-02-13T09:53:23.006Z,25.50
2018-02-13T09:55:50.774Z,23.87
2018-02-13T09:58:18.634Z,25.20
2018-02-13T10:00:46.499Z,24.30
2018-02-13T10:03:14.301Z,25.90
2018-02-13T10:05:42.946Z,29.45
2018-02-13T10:08:10.710Z,33.00
2018-02-13T10:10:38.473Z,24.75
2018-02-13T10:13:06.338Z,28.50
2018-02-13T10:15:34.104Z,23.55
2018-02-13T10:18:01.864Z,28.62
2018-02-13T10:20:29.729Z,20.85
2018-02-13T10:22:57.493Z,23.83
2018-02-13T10:25:25.357Z,21.65
2018-02-13T10:27:53.222Z,22.83
2018-02-13T10:30:21.076Z,21.23
2018-02-13T10:32:48.852Z,25.92
2018-02-13T10:35:16.719Z,21.12
2018-02-13T10:37:44.482Z,22.65
2018-02-13T10:40:13.266Z,18.42
2018-02-13T10:42:41.029Z,20.02
2018-02-13T10:45:08.730Z,20.75
2018-02-13T10:47:37.271Z,23.00
2018-02-13T10:50:05.343Z,23.38
2018-02-13T10:52:33.206Z,23.55
2018-02-13T10:55:01.073Z,17.80
2018-02-13T10:57:28.940Z,26.23
2018-02-13T10:59:56.700Z,18.45
2018-02-13T11:02:24.571Z,18.80
2018-02-13T11:04:52.431Z,21.17
2018-02-13T11:07:20.194Z,20.52
2018-02-13T11:09:48.060Z,19.12
2018-02-13T11:12:15.822Z,22.17
2018-02-13T11:14:43.687Z,18.15
2018-02-13T11:17:11.552Z,19.70
2018-02-13T11:19:39.316Z,16.90
2018-02-13T11:22:07.181Z,20.45
2018-02-13T11:24:35.047Z,23.30
2018-02-13T11:27:02.912Z,18.90
2018-02-13T11:29:30.674Z,18.62
2018-02-13T11:31:58.437Z,15.10
2018-02-13T11:34:26.303Z,16.83
2018-02-13T11:36:54.168Z,19.55
2018-02-13T11:39:21.930Z,17.75
2018-02-13T11:41:49.693Z,23.30
2018-02-13T11:44:17.561Z,20.73
2018-02-13T11:46:45.322Z,16.05
2018-02-13T11:49:13.085Z,19.52
2018-02-13T11:51:40.950Z,17.35
2018-02-13T11:54:08.713Z,14.77
2018-02-13T11:56:36.476Z,11.77
2018-02-13T11:59:04.239Z,10.65
2018-02-13T12:01:32.003Z,15.30
2018-02-13T12:03:59.767Z,11.43
2018-02-13T12:06:27.632Z,11.90
2018-02-13T12:08:55.393Z,14.02
2018-02-13T12:11:23.258Z,10.95
2018-02-13T12:13:51.021Z,10.82
2018-02-13T12:16:18.785Z,10.70
2018-02-13T12:18:46.652Z,12.18
2018-02-13T12:21:14.412Z,13.32
2018-02-13T12:23:42.175Z,11.02
2018-02-13T12:26:10.040Z,7.75
2018-02-13T12:28:37.803Z,18.70
2018-02-13T12:31:05.568Z,11.75
2018-02-13T12:33:33.432Z,10.02
2018-02-13T12:36:01.194Z,12.05
2018-02-13T12:38:28.958Z,11.10
2018-02-13T12:40:56.822Z,8.70
2018-02-13T12:43:24.589Z,11.95
2018-02-13T12:45:52.350Z,9.50
2018-02-13T12:48:20.214Z,11.23
2018-02-13T12:50:47.978Z,12.05
2018-02-13T12:53:15.739Z,13.98
2018-02-13T12:55:43.502Z,11.68
2018-02-13T12:58:11.265Z,11.80
2018-02-13T13:00:39.028Z,13.00
2018-02-13T13:03:06.892Z,12.98
2018-02-13T13:05:34.758Z,14.02
2018-02-13T13:08:02.462Z,7.90
2018-02-13T13:10:31.062Z,10.70
2018-02-13T13:12:58.867Z,12.10
2018-02-13T13:15:26.629Z,10.02
2018-02-13T13:17:54.494Z,14.55
2018-02-13T13:20:22.206Z,10.00
2018-02-13T13:22:50.020Z,14.82
2018-02-13T13:25:17.783Z,13.77
2018-02-13T13:27:45.548Z,9.95
2018-02-13T13:30:13.223Z,10.48
2018-02-13T13:32:40.868Z,9.77
2018-02-13T13:35:08.630Z,12.18
2018-02-13T13:37:36.501Z,11.45
2018-02-13T13:40:04.462Z,13.73
2018-02-13T13:42:32.225Z,7.65
2018-02-13T13:45:00.091Z,12.00
2018-02-13T13:47:27.853Z,13.75
2018-02-13T13:49:55.533Z,12.27
2018-02-13T13:52:24.013Z,9.85
2018-02-13T13:54:51.859Z,13.07
2018-02-13T13:57:19.622Z,14.45
2018-02-13T13:59:47.299Z,14.30
2018-02-13T14:02:15.046Z,11.68
2018-02-13T14:04:42.809Z,11.55
2018-02-13T14:07:10.673Z,7.37
2018-02-13T14:09:38.437Z,12.95
2018-02-13T14:12:06.200Z,10.57
2018-02-13T14:14:33.979Z,8.02
2018-02-13T14:17:01.640Z,11.85
2018-02-13T14:19:29.303Z,17.98
2018-02-13T14:21:57.050Z,10.10
2018-02-13T14:24:24.723Z,12.13
2018-02-13T14:26:52.573Z,12.52
2018-02-13T14:29:20.338Z,14.55
2018-02-13T14:31:48.100Z,12.25
2018-02-13T14:34:15.862Z,10.70
2018-02-13T14:36:43.544Z,16.58
2018-02-13T14:39:11.998Z,10.10
2018-02-13T14:41:39.662Z,15.88
2018-02-13T14:44:07.426Z,8.40
2018-02-13T14:46:35.191Z,14.52
2018-02-13T14:49:02.951Z,31.52
2018-02-13T14:51:30.604Z,69.18
2018-02-13T14:53:58.478Z,106.72
2018-02-13T14:56:26.239Z,60.05
2018-02-13T14:58:53.921Z,92.82
2018-02-13T15:01:21.663Z,77.10
2018-02-13T15:03:49.444Z,90.25
2018-02-13T15:06:17.107Z,61.37
2018-02-13T15:08:46.308Z,32.63
2018-02-13T15:11:14.149Z,29.05
2018-02-13T15:13:41.913Z,20.67
2018-02-13T15:16:09.779Z,20.83
2018-02-13T15:18:38.215Z,16.45
2018-02-13T15:21:06.634Z,17.60
2018-02-13T15:23:34.501Z,13.43
2018-02-13T15:26:02.183Z,18.52
2018-02-13T15:28:29.820Z,25.17
2018-02-13T15:30:57.605Z,30.37
2018-02-13T15:33:25.447Z,16.85
2018-02-13T15:35:53.132Z,12.80
2018-02-13T15:38:20.873Z,15.55
2018-02-13T15:40:49.661Z,15.55
2018-02-13T15:43:17.420Z,13.32
2018-02-13T15:45:45.184Z,14.90
2018-02-13T15:48:12.859Z,15.95
2018-02-13T15:50:40.529Z,20.45
2018-02-13T15:53:09.106Z,19.80
2018-02-13T15:55:36.768Z,14.10
2018-02-13T15:58:05.961Z,16.45
2018-02-13T16:00:33.707Z,13.95
2018-02-13T16:03:01.421Z,12.35
2018-02-13T16:05:30.460Z,18.73
2018-02-13T16:07:58.084Z,29.00
2018-02-13T16:10:26.236Z,25.15
2018-02-13T16:12:53.971Z,13.35
2018-02-13T16:15:21.717Z,15.85
2018-02-13T16:17:49.377Z,14.85
2018-02-13T16:20:17.247Z,18.48
2018-02-13T16:22:45.009Z,19.20
2018-02-13T16:25:12.768Z,10.73
2018-02-13T16:27:40.534Z,12.35
2018-02-13T16:30:08.163Z,14.38
2018-02-13T16:32:35.956Z,13.05
2018-02-13T16:35:03.599Z,15.57
2018-02-13T16:37:31.228Z,12.82
2018-02-13T16:39:58.884Z,17.02
2018-02-13T16:42:27.276Z,13.77
2018-02-13T16:44:54.927Z,16.77
2018-02-13T16:47:23.315Z,11.45
2018-02-13T16:49:50.963Z,19.05
2018-02-13T16:52:19.405Z,29.10
2018-02-13T16:54:47.037Z,27.52
2018-02-13T16:57:14.675Z,15.65
2018-02-13T16:59:42.344Z,19.23
2018-02-13T17:02:09.975Z,26.10
2018-02-13T17:04:38.420Z,26.05
2018-02-13T17:07:06.270Z,26.62
2018-02-13T17:09:33.957Z,26.77
2018-02-13T17:12:01.634Z,26.50
2018-02-13T17:14:29.359Z,22.48
2018-02-13T17:16:57.122Z,22.98
2018-02-13T17:19:26.876Z,28.12
2018-02-13T17:21:55.272Z,23.27
2018-02-13T17:24:22.970Z,23.98
2018-02-13T17:26:50.756Z,33.97
2018-02-13T17:29:18.516Z,28.67
2018-02-13T17:31:46.176Z,31.50
2018-02-13T17:34:14.021Z,46.42
2018-02-13T17:36:41.706Z,15.10
2018-02-13T17:39:09.372Z,23.40
2018-02-13T17:41:37.925Z,19.00
2018-02-13T17:44:05.689Z,23.15
2018-02-13T17:46:33.920Z,23.65
2018-02-13T17:49:02.549Z,17.60
2018-02-13T17:51:30.316Z,17.40
2018-02-13T17:53:57.987Z,14.70
2018-02-13T17:56:25.646Z,18.42
2018-02-13T17:58:53.437Z,21.05
2018-02-13T18:01:21.975Z,19.00
2018-02-13T18:03:49.737Z,23.25
2018-02-13T18:06:17.415Z,16.85
2018-02-13T18:08:45.272Z,22.37
2018-02-13T18:11:13.132Z,19.73
2018-02-13T18:13:40.997Z,29.65
2018-02-13T18:16:08.693Z,38.20
2018-02-13T18:18:37.083Z,35.13
2018-02-13T18:21:05.602Z,36.67
2018-02-13T18:23:33.239Z,28.67
2018-02-13T18:26:00.885Z,17.85
2018-02-13T18:28:29.492Z,30.45
2018-02-13T18:30:57.129Z,63.65
2018-02-13T18:33:25.587Z,37.55
2018-02-13T18:35:53.307Z,22.15
2018-02-13T18:38:20.939Z,33.58
2018-02-13T18:40:48.596Z,42.38
2018-02-13T18:43:17.020Z,34.50
2018-02-13T18:45:44.658Z,27.77
2018-02-13T18:48:12.352Z,27.87
2018-02-13T18:50:40.103Z,30.35
2018-02-13T18:55:35.525Z,43.05
2018-02-13T18:58:03.217Z,32.92
2018-02-13T19:00:30.868Z,44.03
2018-02-13T19:02:58.609Z,43.28
2018-02-13T19:05:26.269Z,41.35
2018-02-13T19:07:53.900Z,24.77
2018-02-13T19:10:21.693Z,28.10
2018-02-13T19:12:49.351Z,36.28
2018-02-13T19:15:17.014Z,43.87
2018-02-13T19:17:44.779Z,38.17
2018-02-13T19:20:12.459Z,40.65
2018-02-13T19:22:40.119Z,35.13
2018-02-13T19:25:07.964Z,31.58
2018-02-13T19:27:35.599Z,32.67
2018-02-13T19:30:03.304Z,30.83
2018-02-13T19:32:31.664Z,27.52
2018-02-13T19:35:00.245Z,29.87
2018-02-13T19:37:27.945Z,38.33
2018-02-13T19:39:56.587Z,29.60
2018-02-13T19:42:24.223Z,38.13
2018-02-13T19:44:51.927Z,35.05
2018-02-13T19:47:19.609Z,30.88
2018-02-13T19:49:48.151Z,31.35
2018-02-13T19:52:15.913Z,34.90
2018-02-13T19:54:43.800Z,34.78
2018-02-13T19:57:11.563Z,45.67
2018-02-13T19:59:39.413Z,43.92
2018-02-13T20:02:07.173Z,46.42
2018-02-13T20:04:34.871Z,32.53
2018-02-13T20:07:03.313Z,42.50
2018-02-13T20:09:32.209Z,35.67
2018-02-13T20:11:59.895Z,30.08
2018-02-13T20:14:27.531Z,25.92
2018-02-13T20:16:55.172Z,26.58
2018-02-13T20:21:54.661Z,29.87
2018-02-13T20:24:22.406Z,28.65
2018-02-13T20:26:50.944Z,37.80
2018-02-13T20:29:18.811Z,48.87
2018-02-13T20:31:46.470Z,42.10
2018-02-13T20:34:14.131Z,52.05
2018-02-13T20:36:42.136Z,51.13
2018-02-13T20:39:09.964Z,51.70
2018-02-13T20:41:37.624Z,34.70
2018-02-13T20:44:05.481Z,27.65
2018-02-13T20:46:33.175Z,26.25
2018-02-13T20:49:00.956Z,25.83
2018-02-13T20:51:29.551Z,23.70
2018-02-13T20:53:58.004Z,24.12
2018-02-13T20:56:28.963Z,23.77
2018-02-13T20:59:01.564Z,22.80
2018-02-13T21:01:29.292Z,31.65
2018-02-13T21:06:29.519Z,50.70
2018-02-13T21:08:57.156Z,93.62
2018-02-13T21:11:29.917Z,38.72
2018-02-13T21:13:57.564Z,42.92
2018-02-13T21:16:25.293Z,48.08
2018-02-13T21:18:53.763Z,32.65
2018-02-13T21:21:21.601Z,28.80
2018-02-13T21:23:49.232Z,27.92
2018-02-13T21:26:16.896Z,26.67
2018-02-13T21:28:44.573Z,20.65
2018-02-13T21:31:12.336Z,37.35
2018-02-13T21:33:40.084Z,64.30
2018-02-13T21:36:07.748Z,80.35
2018-02-13T21:38:35.388Z,43.50
2018-02-13T21:41:03.067Z,51.13
2018-02-13T21:43:30.712Z,58.03
2018-02-13T21:45:58.348Z,82.88
2018-02-13T21:48:26.037Z,75.10
2018-02-13T21:50:53.687Z,47.83
2018-02-13T21:53:21.461Z,40.45
2018-02-13T21:55:49.193Z,34.72
2018-02-13T21:58:17.672Z,20.42
2018-02-13T22:00:46.327Z,25.23
2018-02-13T22:03:14.156Z,27.02
2018-02-13T22:05:41.910Z,20.45
2018-02-13T22:08:09.624Z,29.90
2018-02-13T22:10:37.256Z,21.80
2018-02-13T22:13:05.022Z,26.95
2018-02-13T22:15:34.200Z,32.97
2018-02-13T22:18:02.025Z,30.75
2018-02-13T22:20:30.836Z,29.45
2018-02-13T22:22:58.471Z,38.45
2018-02-13T22:25:26.931Z,37.88
2018-02-13T22:27:54.610Z,32.65
2018-02-13T22:30:22.319Z,45.42
2018-02-13T22:32:49.977Z,43.50
2018-02-13T22:35:17.816Z,43.87
2018-02-13T22:37:46.372Z,39.17
2018-02-13T22:40:14.215Z,29.12
2018-02-13T22:42:42.243Z,26.25
2018-02-13T22:45:10.895Z,28.40
2018-02-13T22:47:38.784Z,21.60
2018-02-13T22:50:06.620Z,27.20
2018-02-13T22:52:35.420Z,26.83
2018-02-13T22:55:03.105Z,33.92
2018-02-13T22:57:30.836Z,26.98
2018-02-13T22:59:59.351Z,27.15
2018-02-13T23:02:27.028Z,33.92
2018-02-13T23:04:54.791Z,33.33
2018-02-13T23:07:22.536Z,27.10
2018-02-13T23:09:50.251Z,29.40
2018-02-13T23:12:18.033Z,34.03
2018-02-13T23:14:46.546Z,25.70
2018-02-13T23:17:14.284Z,27.52
2018-02-13T23:19:42.087Z,29.67
2018-02-13T23:22:09.769Z,29.23
2018-02-13T23:24:37.539Z,26.30
2018-02-13T23:27:05.297Z,26.10
2018-02-13T23:29:33.004Z,33.25
